sensor_id;sensor_type;location;lat;lon;timestamp;P1;durP1;ratioP1;P2;durP2;ratioP2
36475;SDS011;56615;42.682;23.364;2022-10-16T00:01:21;18.27;;;10.48;;
36475;SDS011;56615;42.682;23.364;2022-10-16T00:03:49;18.17;;;10.52;;
36475;SDS011;56615;42.682;23.364;2022-10-16T00:06:16;19.33;;;10.68;;
36475;SDS011;56615;42.682;23.364;2022-10-16T00:08:42;16.60;;;10.15;;
36475;SDS011;56615;42.682;23.364;2022-10-16T00:11:09;18.67;;;11.18;;
36475;SDS011;56615;42.682;23.364;2022-10-16T00:13:37;17.65;;;10.30;;
36475;SDS011;56615;42.682;23.364;2022-10-16T00:16:04;20.65;;;10.43;;
36475;SDS011;56615;42.682;23.364;2022-10-16T00:18:30;17.48;;;10.73;;
36475;SDS011;56615;42.682;23.364;2022-10-16T00:21:00;18.73;;;11.43;;
36475;SDS011;56615;42.682;23.364;2022-10-16T00:23:28;21.05;;;10.85;;
36475;SDS011;56615;42.682;23.364;2022-10-16T00:25:57;17.35;;;10.57;;
36475;SDS011;56615;42.682;23.364;2022-10-16T00:28:24;18.40;;;11.10;;
36475;SDS011;56615;42.682;23.364;2022-10-16T00:30:50;15.82;;;9.57;;
36475;SDS011;56615;42.682;23.364;2022-10-16T00:33:16;17.77;;;10.85;;
36475;SDS011;56615;42.682;23.364;2022-10-16T00:35:41;18.88;;;10.52;;
36475;SDS011;56615;42.682;23.364;2022-10-16T00:38:07;15.52;;;10.00;;
36475;SDS011;56615;42.682;23.364;2022-10-16T00:40:32;21.17;;;11.02;;
36475;SDS011;56615;42.682;23.364;2022-10-16T00:42:58;18.48;;;10.18;;
36475;SDS011;56615;42.682;23.364;2022-10-16T00:45:23;18.27;;;10.73;;
36475;SDS011;56615;42.682;23.364;2022-10-16T00:47:49;17.00;;;10.05;;
36475;SDS011;56615;42.682;23.364;2022-10-16T00:50:32;17.40;;;10.32;;
36475;SDS011;56615;42.682;23.364;2022-10-16T00:52:58;16.80;;;10.90;;
36475;SDS011;56615;42.682;23.364;2022-10-16T00:55:26;20.63;;;10.63;;
36475;SDS011;56615;42.682;23.364;2022-10-16T00:57:53;17.10;;;10.18;;
36475;SDS011;56615;42.682;23.364;2022-10-16T01:00:20;19.85;;;11.10;;
36475;SDS011;56615;42.682;23.364;2022-10-16T01:02:54;16.52;;;9.98;;
36475;SDS011;56615;42.682;23.364;2022-10-16T01:05:25;19.45;;;10.55;;
36475;SDS011;56615;42.682;23.364;2022-10-16T01:08:19;17.63;;;10.20;;
36475;SDS011;56615;42.682;23.364;2022-10-16T01:10:57;17.33;;;10.30;;
36475;SDS011;56615;42.682;23.364;2022-10-16T01:13:37;19.00;;;10.18;;
36475;SDS011;56615;42.682;23.364;2022-10-16T01:16:15;17.30;;;10.68;;
36475;SDS011;56615;42.682;23.364;2022-10-16T01:21:42;18.50;;;11.60;;
36475;SDS011;56615;42.682;23.364;2022-10-16T01:24:52;20.40;;;11.23;;
36475;SDS011;56615;42.682;23.364;2022-10-16T01:32:50;18.60;;;10.85;;
36475;SDS011;56615;42.682;23.364;2022-10-16T01:37:38;20.05;;;11.05;;
36475;SDS011;56615;42.682;23.364;2022-10-16T01:40:24;16.90;;;10.45;;
36475;SDS011;56615;42.682;23.364;2022-10-16T01:42:52;19.52;;;10.68;;
36475;SDS011;56615;42.682;23.364;2022-10-16T01:45:21;16.42;;;10.38;;
36475;SDS011;56615;42.682;23.364;2022-10-16T01:47:47;17.38;;;10.70;;
36475;SDS011;56615;42.682;23.364;2022-10-16T01:50:14;19.40;;;10.18;;
36475;SDS011;56615;42.682;23.364;2022-10-16T01:52:42;17.88;;;11.05;;
36475;SDS011;56615;42.682;23.364;2022-10-16T01:55:08;15.27;;;10.50;;
36475;SDS011;56615;42.682;23.364;2022-10-16T01:57:36;20.08;;;10.40;;
36475;SDS011;56615;42.682;23.364;2022-10-16T02:00:05;16.27;;;9.90;;
36475;SDS011;56615;42.682;23.364;2022-10-16T02:02:33;18.83;;;10.90;;
36475;SDS011;56615;42.682;23.364;2022-10-16T02:05:01;18.00;;;10.63;;
36475;SDS011;56615;42.682;23.364;2022-10-16T02:07:31;18.58;;;10.30;;
36475;SDS011;56615;42.682;23.364;2022-10-16T02:09:57;19.63;;;10.90;;
36475;SDS011;56615;42.682;23.364;2022-10-16T02:12:30;18.92;;;9.82;;
36475;SDS011;56615;42.682;23.364;2022-10-16T02:14:57;18.27;;;10.45;;
36475;SDS011;56615;42.682;23.364;2022-10-16T02:17:26;19.65;;;10.85;;
36475;SDS011;56615;42.682;23.364;2022-10-16T02:19:52;21.73;;;11.68;;
36475;SDS011;56615;42.682;23.364;2022-10-16T02:22:34;22.02;;;12.30;;
36475;SDS011;56615;42.682;23.364;2022-10-16T02:27:42;23.02;;;13.73;;
36475;SDS011;56615;42.682;23.364;2022-10-16T02:32:49;27.20;;;15.85;;
36475;SDS011;56615;42.682;23.364;2022-10-16T02:35:16;27.23;;;16.02;;
36475;SDS011;56615;42.682;23.364;2022-10-16T02:37:42;25.42;;;14.27;;
36475;SDS011;56615;42.682;23.364;2022-10-16T02:40:08;25.45;;;14.43;;
36475;SDS011;56615;42.682;23.364;2022-10-16T02:42:35;22.10;;;13.57;;
36475;SDS011;56615;42.682;23.364;2022-10-16T02:45:01;20.52;;;12.02;;
36475;SDS011;56615;42.682;23.364;2022-10-16T02:47:28;23.25;;;12.80;;
36475;SDS011;56615;42.682;23.364;2022-10-16T02:49:54;20.40;;;12.02;;
36475;SDS011;56615;42.682;23.364;2022-10-16T02:52:19;20.20;;;12.05;;
36475;SDS011;56615;42.682;23.364;2022-10-16T02:54:44;24.50;;;11.75;;
36475;SDS011;56615;42.682;23.364;2022-10-16T02:57:10;22.27;;;11.95;;
36475;SDS011;56615;42.682;23.364;2022-10-16T02:59:35;21.13;;;11.25;;
36475;SDS011;56615;42.682;23.364;2022-10-16T03:02:00;24.13;;;11.93;;
36475;SDS011;56615;42.682;23.364;2022-10-16T03:04:26;19.92;;;11.20;;
36475;SDS011;56615;42.682;23.364;2022-10-16T03:06:51;23.17;;;11.57;;
36475;SDS011;56615;42.682;23.364;2022-10-16T03:09:16;19.83;;;11.18;;
36475;SDS011;56615;42.682;23.364;2022-10-16T03:11:42;19.88;;;11.80;;
36475;SDS011;56615;42.682;23.364;2022-10-16T03:14:07;21.15;;;11.82;;
36475;SDS011;56615;42.682;23.364;2022-10-16T03:16:33;20.85;;;11.25;;
36475;SDS011;56615;42.682;23.364;2022-10-16T03:18:58;18.48;;;10.90;;
36475;SDS011;56615;42.682;23.364;2022-10-16T03:21:23;18.60;;;11.05;;
36475;SDS011;56615;42.682;23.364;2022-10-16T03:23:49;19.00;;;10.77;;
36475;SDS011;56615;42.682;23.364;2022-10-16T03:26:15;14.13;;;8.10;;
36475;SDS011;56615;42.682;23.364;2022-10-16T03:28:40;15.98;;;9.00;;
36475;SDS011;56615;42.682;23.364;2022-10-16T03:31:05;12.70;;;7.38;;
36475;SDS011;56615;42.682;23.364;2022-10-16T03:33:31;11.02;;;7.03;;
36475;SDS011;56615;42.682;23.364;2022-10-16T03:35:56;13.02;;;7.45;;
36475;SDS011;56615;42.682;23.364;2022-10-16T03:38:22;11.57;;;7.32;;
36475;SDS011;56615;42.682;23.364;2022-10-16T03:40:48;11.23;;;7.20;;
36475;SDS011;56615;42.682;23.364;2022-10-16T03:43:13;12.20;;;7.05;;
36475;SDS011;56615;42.682;23.364;2022-10-16T03:45:39;13.07;;;6.70;;
36475;SDS011;56615;42.682;23.364;2022-10-16T03:48:05;11.90;;;6.65;;
36475;SDS011;56615;42.682;23.364;2022-10-16T03:50:30;10.48;;;6.60;;
36475;SDS011;56615;42.682;23.364;2022-10-16T03:52:56;12.75;;;7.03;;
36475;SDS011;56615;42.682;23.364;2022-10-16T03:55:21;13.23;;;7.03;;
36475;SDS011;56615;42.682;23.364;2022-10-16T03:57:47;10.65;;;6.60;;
36475;SDS011;56615;42.682;23.364;2022-10-16T04:00:12;15.73;;;7.15;;
36475;SDS011;56615;42.682;23.364;2022-10-16T04:02:38;11.15;;;6.85;;
36475;SDS011;56615;42.682;23.364;2022-10-16T04:05:04;10.10;;;6.40;;
36475;SDS011;56615;42.682;23.364;2022-10-16T04:07:29;10.48;;;6.88;;
36475;SDS011;56615;42.682;23.364;2022-10-16T04:09:55;10.13;;;6.38;;
36475;SDS011;56615;42.682;23.364;2022-10-16T04:12:20;12.77;;;6.43;;
36475;SDS011;56615;42.682;23.364;2022-10-16T04:14:46;12.05;;;7.45;;
36475;SDS011;56615;42.682;23.364;2022-10-16T04:17:14;14.75;;;6.85;;
36475;SDS011;56615;42.682;23.364;2022-10-16T04:19:39;13.18;;;6.85;;
36475;SDS011;56615;42.682;23.364;2022-10-16T04:22:05;13.77;;;8.00;;
36475;SDS011;56615;42.682;23.364;2022-10-16T04:24:30;14.73;;;8.55;;
36475;SDS011;56615;42.682;23.364;2022-10-16T04:26:55;17.42;;;9.57;;
36475;SDS011;56615;42.682;23.364;2022-10-16T04:29:21;25.80;;;14.30;;
36475;SDS011;56615;42.682;23.364;2022-10-16T04:31:47;31.15;;;14.82;;
36475;SDS011;56615;42.682;23.364;2022-10-16T04:34:12;55.95;;;27.10;;
36475;SDS011;56615;42.682;23.364;2022-10-16T04:36:37;52.25;;;26.52;;
36475;SDS011;56615;42.682;23.364;2022-10-16T04:39:03;40.33;;;19.63;;
36475;SDS011;56615;42.682;23.364;2022-10-16T04:41:28;31.13;;;16.50;;
36475;SDS011;56615;42.682;23.364;2022-10-16T04:43:53;28.42;;;16.13;;
36475;SDS011;56615;42.682;23.364;2022-10-16T04:46:19;31.13;;;17.33;;
36475;SDS011;56615;42.682;23.364;2022-10-16T04:48:44;31.00;;;15.73;;
36475;SDS011;56615;42.682;23.364;2022-10-16T04:51:10;22.52;;;13.88;;
36475;SDS011;56615;42.682;23.364;2022-10-16T04:53:35;19.52;;;11.02;;
36475;SDS011;56615;42.682;23.364;2022-10-16T04:56:01;18.33;;;11.55;;
36475;SDS011;56615;42.682;23.364;2022-10-16T04:58:27;18.33;;;11.77;;
36475;SDS011;56615;42.682;23.364;2022-10-16T05:00:52;23.13;;;13.88;;
36475;SDS011;56615;42.682;23.364;2022-10-16T05:03:18;23.55;;;14.75;;
36475;SDS011;56615;42.682;23.364;2022-10-16T05:05:44;29.73;;;15.55;;
36475;SDS011;56615;42.682;23.364;2022-10-16T05:08:10;25.75;;;16.63;;
36475;SDS011;56615;42.682;23.364;2022-10-16T05:10:36;26.90;;;18.27;;
36475;SDS011;56615;42.682;23.364;2022-10-16T05:13:02;24.02;;;16.23;;
36475;SDS011;56615;42.682;23.364;2022-10-16T05:15:28;18.70;;;12.93;;
36475;SDS011;56615;42.682;23.364;2022-10-16T05:17:54;19.90;;;11.18;;
36475;SDS011;56615;42.682;23.364;2022-10-16T05:20:20;17.67;;;11.25;;
36475;SDS011;56615;42.682;23.364;2022-10-16T05:22:45;17.13;;;9.88;;
36475;SDS011;56615;42.682;23.364;2022-10-16T05:25:11;15.95;;;9.57;;
36475;SDS011;56615;42.682;23.364;2022-10-16T05:27:36;15.50;;;8.30;;
36475;SDS011;56615;42.682;23.364;2022-10-16T05:30:02;15.35;;;9.00;;
36475;SDS011;56615;42.682;23.364;2022-10-16T05:32:27;17.38;;;10.02;;
36475;SDS011;56615;42.682;23.364;2022-10-16T05:34:52;14.35;;;8.50;;
36475;SDS011;56615;42.682;23.364;2022-10-16T05:37:18;13.20;;;8.25;;
36475;SDS011;56615;42.682;23.364;2022-10-16T05:39:43;15.55;;;8.95;;
36475;SDS011;56615;42.682;23.364;2022-10-16T05:42:09;14.95;;;7.88;;
36475;SDS011;56615;42.682;23.364;2022-10-16T05:44:34;15.80;;;8.80;;
36475;SDS011;56615;42.682;23.364;2022-10-16T05:47:00;16.45;;;9.25;;
36475;SDS011;56615;42.682;23.364;2022-10-16T05:49:25;14.38;;;8.77;;
36475;SDS011;56615;42.682;23.364;2022-10-16T05:51:52;17.25;;;8.60;;
36475;SDS011;56615;42.682;23.364;2022-10-16T05:54:20;16.58;;;9.40;;
36475;SDS011;56615;42.682;23.364;2022-10-16T05:56:45;16.60;;;9.02;;
36475;SDS011;56615;42.682;23.364;2022-10-16T05:59:11;15.52;;;9.50;;
36475;SDS011;56615;42.682;23.364;2022-10-16T06:01:37;17.00;;;9.40;;
36475;SDS011;56615;42.682;23.364;2022-10-16T06:04:02;16.20;;;9.93;;
36475;SDS011;56615;42.682;23.364;2022-10-16T06:06:28;17.55;;;10.32;;
36475;SDS011;56615;42.682;23.364;2022-10-16T06:08:55;24.27;;;10.35;;
36475;SDS011;56615;42.682;23.364;2022-10-16T06:11:22;18.52;;;9.75;;
36475;SDS011;56615;42.682;23.364;2022-10-16T06:13:53;15.02;;;8.60;;
36475;SDS011;56615;42.682;23.364;2022-10-16T06:16:23;15.43;;;8.73;;
36475;SDS011;56615;42.682;23.364;2022-10-16T06:18:53;16.02;;;8.60;;
36475;SDS011;56615;42.682;23.364;2022-10-16T06:21:21;17.30;;;9.48;;
36475;SDS011;56615;42.682;23.364;2022-10-16T06:23:49;16.17;;;10.02;;
36475;SDS011;56615;42.682;23.364;2022-10-16T06:26:17;20.40;;;9.90;;
36475;SDS011;56615;42.682;23.364;2022-10-16T06:28:44;16.45;;;10.73;;
36475;SDS011;56615;42.682;23.364;2022-10-16T06:31:11;18.60;;;11.40;;
36475;SDS011;56615;42.682;23.364;2022-10-16T06:33:37;19.08;;;11.40;;
36475;SDS011;56615;42.682;23.364;2022-10-16T06:36:08;21.10;;;12.63;;
36475;SDS011;56615;42.682;23.364;2022-10-16T06:38:35;22.10;;;12.40;;
36475;SDS011;56615;42.682;23.364;2022-10-16T06:41:01;24.05;;;14.52;;
36475;SDS011;56615;42.682;23.364;2022-10-16T06:43:28;21.75;;;13.52;;
36475;SDS011;56615;42.682;23.364;2022-10-16T06:45:57;21.08;;;12.15;;
36475;SDS011;56615;42.682;23.364;2022-10-16T06:48:23;20.88;;;12.73;;
36475;SDS011;56615;42.682;23.364;2022-10-16T06:53:28;20.23;;;10.30;;
36475;SDS011;56615;42.682;23.364;2022-10-16T06:55:55;16.98;;;10.50;;
36475;SDS011;56615;42.682;23.364;2022-10-16T06:58:20;18.17;;;11.35;;
36475;SDS011;56615;42.682;23.364;2022-10-16T07:00:46;20.80;;;11.13;;
36475;SDS011;56615;42.682;23.364;2022-10-16T07:03:11;16.00;;;10.98;;
36475;SDS011;56615;42.682;23.364;2022-10-16T07:05:37;18.33;;;11.73;;
36475;SDS011;56615;42.682;23.364;2022-10-16T07:08:03;22.48;;;13.00;;
36475;SDS011;56615;42.682;23.364;2022-10-16T07:10:31;21.15;;;13.13;;
36475;SDS011;56615;42.682;23.364;2022-10-16T07:12:57;16.98;;;8.95;;
36475;SDS011;56615;42.682;23.364;2022-10-16T07:15:22;12.55;;;7.65;;
36475;SDS011;56615;42.682;23.364;2022-10-16T07:17:49;13.10;;;7.50;;
36475;SDS011;56615;42.682;23.364;2022-10-16T07:20:14;11.02;;;6.60;;
36475;SDS011;56615;42.682;23.364;2022-10-16T07:22:40;13.25;;;6.78;;
36475;SDS011;56615;42.682;23.364;2022-10-16T07:25:05;10.82;;;6.40;;
36475;SDS011;56615;42.682;23.364;2022-10-16T07:27:31;10.60;;;6.50;;
36475;SDS011;56615;42.682;23.364;2022-10-16T07:29:56;12.68;;;6.60;;
36475;SDS011;56615;42.682;23.364;2022-10-16T07:32:22;10.82;;;6.00;;
36475;SDS011;56615;42.682;23.364;2022-10-16T07:34:47;10.80;;;6.43;;
36475;SDS011;56615;42.682;23.364;2022-10-16T07:37:12;9.73;;;6.25;;
36475;SDS011;56615;42.682;23.364;2022-10-16T07:39:39;12.10;;;5.90;;
36475;SDS011;56615;42.682;23.364;2022-10-16T07:42:04;10.18;;;6.28;;
36475;SDS011;56615;42.682;23.364;2022-10-16T07:44:30;14.85;;;7.07;;
36475;SDS011;56615;42.682;23.364;2022-10-16T07:46:55;10.70;;;6.03;;
36475;SDS011;56615;42.682;23.364;2022-10-16T07:49:21;10.43;;;6.43;;
36475;SDS011;56615;42.682;23.364;2022-10-16T07:51:46;10.48;;;5.85;;
36475;SDS011;56615;42.682;23.364;2022-10-16T07:54:11;10.82;;;6.53;;
36475;SDS011;56615;42.682;23.364;2022-10-16T07:56:37;12.70;;;6.10;;
36475;SDS011;56615;42.682;23.364;2022-10-16T07:59:02;8.88;;;5.38;;
36475;SDS011;56615;42.682;23.364;2022-10-16T08:01:28;12.15;;;5.60;;
36475;SDS011;56615;42.682;23.364;2022-10-16T08:03:53;10.98;;;5.63;;
36475;SDS011;56615;42.682;23.364;2022-10-16T08:06:19;12.75;;;5.88;;
36475;SDS011;56615;42.682;23.364;2022-10-16T08:08:46;9.70;;;5.65;;
36475;SDS011;56615;42.682;23.364;2022-10-16T08:11:12;11.48;;;6.25;;
36475;SDS011;56615;42.682;23.364;2022-10-16T08:13:39;13.63;;;5.50;;
36475;SDS011;56615;42.682;23.364;2022-10-16T08:16:04;11.30;;;6.20;;
36475;SDS011;56615;42.682;23.364;2022-10-16T08:18:40;17.90;;;11.52;;
36475;SDS011;56615;42.682;23.364;2022-10-16T08:21:06;14.30;;;8.18;;
36475;SDS011;56615;42.682;23.364;2022-10-16T08:23:33;11.68;;;6.38;;
36475;SDS011;56615;42.682;23.364;2022-10-16T08:26:03;10.20;;;5.82;;
36475;SDS011;56615;42.682;23.364;2022-10-16T08:28:30;10.18;;;5.25;;
36475;SDS011;56615;42.682;23.364;2022-10-16T08:30:56;11.98;;;5.40;;
36475;SDS011;56615;42.682;23.364;2022-10-16T08:33:24;10.30;;;5.20;;
36475;SDS011;56615;42.682;23.364;2022-10-16T08:35:50;12.05;;;5.25;;
36475;SDS011;56615;42.682;23.364;2022-10-16T08:38:18;9.43;;;5.28;;
36475;SDS011;56615;42.682;23.364;2022-10-16T08:40:44;8.32;;;4.82;;
36475;SDS011;56615;42.682;23.364;2022-10-16T08:43:21;9.80;;;5.30;;
36475;SDS011;56615;42.682;23.364;2022-10-16T08:48:54;9.50;;;4.43;;
36475;SDS011;56615;42.682;23.364;2022-10-16T08:51:24;8.82;;;3.90;;
36475;SDS011;56615;42.682;23.364;2022-10-16T08:56:19;7.57;;;4.03;;
36475;SDS011;56615;42.682;23.364;2022-10-16T08:58:45;9.43;;;3.80;;
36475;SDS011;56615;42.682;23.364;2022-10-16T09:01:12;8.60;;;4.50;;
36475;SDS011;56615;42.682;23.364;2022-10-16T09:11:33;7.25;;;3.90;;
36475;SDS011;56615;42.682;23.364;2022-10-16T09:25:29;11.10;;;4.57;;
36475;SDS011;56615;42.682;23.364;2022-10-16T09:27:54;8.75;;;4.20;;
36475;SDS011;56615;42.682;23.364;2022-10-16T09:30:21;7.60;;;3.63;;
36475;SDS011;56615;42.682;23.364;2022-10-16T09:32:50;9.82;;;3.95;;
36475;SDS011;56615;42.682;23.364;2022-10-16T09:35:19;6.00;;;3.50;;
36475;SDS011;56615;42.682;23.364;2022-10-16T09:37:47;8.23;;;3.67;;
36475;SDS011;56615;42.682;23.364;2022-10-16T09:40:33;8.95;;;3.67;;
36475;SDS011;56615;42.682;23.364;2022-10-16T09:46:02;9.32;;;5.15;;
36475;SDS011;56615;42.682;23.364;2022-10-16T09:48:49;8.13;;;3.53;;
36475;SDS011;56615;42.682;23.364;2022-10-16T09:54:01;9.25;;;3.90;;
36475;SDS011;56615;42.682;23.364;2022-10-16T09:56:31;7.95;;;4.30;;
36475;SDS011;56615;42.682;23.364;2022-10-16T09:59:00;6.47;;;4.00;;
36475;SDS011;56615;42.682;23.364;2022-10-16T10:01:34;8.10;;;4.00;;
36475;SDS011;56615;42.682;23.364;2022-10-16T10:04:02;7.20;;;3.90;;
36475;SDS011;56615;42.682;23.364;2022-10-16T10:06:30;8.23;;;4.32;;
36475;SDS011;56615;42.682;23.364;2022-10-16T10:08:58;9.02;;;3.95;;
36475;SDS011;56615;42.682;23.364;2022-10-16T10:11:42;8.52;;;3.65;;
36475;SDS011;56615;42.682;23.364;2022-10-16T10:14:27;6.38;;;3.05;;
36475;SDS011;56615;42.682;23.364;2022-10-16T10:17:02;6.80;;;3.42;;
36475;SDS011;56615;42.682;23.364;2022-10-16T10:19:40;7.70;;;3.53;;
36475;SDS011;56615;42.682;23.364;2022-10-16T10:22:19;7.80;;;4.40;;
36475;SDS011;56615;42.682;23.364;2022-10-16T10:27:37;9.10;;;5.05;;
36475;SDS011;56615;42.682;23.364;2022-10-16T10:30:15;9.02;;;4.28;;
36475;SDS011;56615;42.682;23.364;2022-10-16T10:35:32;8.43;;;3.95;;
36475;SDS011;56615;42.682;23.364;2022-10-16T10:40:50;10.35;;;4.30;;
36475;SDS011;56615;42.682;23.364;2022-10-16T10:43:33;7.38;;;3.70;;
36475;SDS011;56615;42.682;23.364;2022-10-16T10:46:32;6.63;;;3.15;;
36475;SDS011;56615;42.682;23.364;2022-10-16T11:00:39;7.63;;;3.83;;
36475;SDS011;56615;42.682;23.364;2022-10-16T11:06:22;9.52;;;3.92;;
36475;SDS011;56615;42.682;23.364;2022-10-16T11:09:02;7.20;;;3.63;;
36475;SDS011;56615;42.682;23.364;2022-10-16T11:11:35;9.27;;;3.47;;
36475;SDS011;56615;42.682;23.364;2022-10-16T11:16:58;7.77;;;3.90;;
36475;SDS011;56615;42.682;23.364;2022-10-16T11:22:11;7.75;;;3.38;;
36475;SDS011;56615;42.682;23.364;2022-10-16T11:25:01;6.65;;;3.65;;
36475;SDS011;56615;42.682;23.364;2022-10-16T11:30:25;8.45;;;3.35;;
36475;SDS011;56615;42.682;23.364;2022-10-16T11:38:53;6.45;;;2.97;;
36475;SDS011;56615;42.682;23.364;2022-10-16T11:41:13;7.50;;;3.20;;
36475;SDS011;56615;42.682;23.364;2022-10-16T11:43:46;6.82;;;3.28;;
36475;SDS011;56615;42.682;23.364;2022-10-16T11:46:20;8.30;;;3.28;;
36475;SDS011;56615;42.682;23.364;2022-10-16T11:48:51;6.72;;;3.20;;
36475;SDS011;56615;42.682;23.364;2022-10-16T11:51:54;6.70;;;3.10;;
36475;SDS011;56615;42.682;23.364;2022-10-16T11:54:49;7.38;;;3.15;;
36475;SDS011;56615;42.682;23.364;2022-10-16T11:57:19;8.40;;;3.20;;
36475;SDS011;56615;42.682;23.364;2022-10-16T12:00:02;5.75;;;2.92;;
36475;SDS011;56615;42.682;23.364;2022-10-16T12:02:40;8.43;;;3.83;;
36475;SDS011;56615;42.682;23.364;2022-10-16T12:08:08;5.30;;;3.08;;
36475;SDS011;56615;42.682;23.364;2022-10-16T12:10:36;6.03;;;2.83;;
36475;SDS011;56615;42.682;23.364;2022-10-16T12:13:26;6.57;;;3.15;;
36475;SDS011;56615;42.682;23.364;2022-10-16T12:16:03;6.53;;;3.00;;
36475;SDS011;56615;42.682;23.364;2022-10-16T12:18:30;6.07;;;3.20;;
36475;SDS011;56615;42.682;23.364;2022-10-16T12:20:58;8.55;;;3.03;;
36475;SDS011;56615;42.682;23.364;2022-10-16T12:23:29;6.18;;;3.20;;
36475;SDS011;56615;42.682;23.364;2022-10-16T12:25:56;6.28;;;2.95;;
36475;SDS011;56615;42.682;23.364;2022-10-16T12:28:30;6.00;;;3.20;;
36475;SDS011;56615;42.682;23.364;2022-10-16T12:31:01;7.00;;;3.20;;
36475;SDS011;56615;42.682;23.364;2022-10-16T12:33:41;7.03;;;3.10;;
36475;SDS011;56615;42.682;23.364;2022-10-16T12:36:15;6.78;;;3.22;;
36475;SDS011;56615;42.682;23.364;2022-10-16T12:38:51;4.60;;;2.75;;
36475;SDS011;56615;42.682;23.364;2022-10-16T12:43:56;7.20;;;2.92;;
36475;SDS011;56615;42.682;23.364;2022-10-16T12:46:23;8.40;;;3.28;;
36475;SDS011;56615;42.682;23.364;2022-10-16T12:49:35;6.05;;;2.95;;
36475;SDS011;56615;42.682;23.364;2022-10-16T12:51:53;5.72;;;3.17;;
36475;SDS011;56615;42.682;23.364;2022-10-16T12:54:27;6.75;;;3.08;;
36475;SDS011;56615;42.682;23.364;2022-10-16T13:10:42;6.70;;;3.22;;
36475;SDS011;56615;42.682;23.364;2022-10-16T13:21:18;5.05;;;2.88;;
36475;SDS011;56615;42.682;23.364;2022-10-16T13:32:59;6.53;;;2.95;;
36475;SDS011;56615;42.682;23.364;2022-10-16T13:35:27;7.45;;;3.30;;
36475;SDS011;56615;42.682;23.364;2022-10-16T13:38:05;9.05;;;2.80;;
36475;SDS011;56615;42.682;23.364;2022-10-16T13:40:36;7.18;;;3.47;;
36475;SDS011;56615;42.682;23.364;2022-10-16T13:43:02;5.47;;;3.40;;
36475;SDS011;56615;42.682;23.364;2022-10-16T13:45:28;5.60;;;2.97;;
36475;SDS011;56615;42.682;23.364;2022-10-16T13:48:03;4.75;;;2.90;;
36475;SDS011;56615;42.682;23.364;2022-10-16T13:50:29;6.45;;;2.88;;
36475;SDS011;56615;42.682;23.364;2022-10-16T13:53:12;8.55;;;3.05;;
36475;SDS011;56615;42.682;23.364;2022-10-16T13:55:38;7.65;;;3.45;;
36475;SDS011;56615;42.682;23.364;2022-10-16T13:58:13;6.10;;;2.90;;
36475;SDS011;56615;42.682;23.364;2022-10-16T14:00:39;6.45;;;3.10;;
36475;SDS011;56615;42.682;23.364;2022-10-16T14:03:13;6.22;;;3.13;;
36475;SDS011;56615;42.682;23.364;2022-10-16T14:05:58;10.20;;;4.95;;
36475;SDS011;56615;42.682;23.364;2022-10-16T14:08:25;7.50;;;2.75;;
36475;SDS011;56615;42.682;23.364;2022-10-16T14:10:54;10.32;;;3.80;;
36475;SDS011;56615;42.682;23.364;2022-10-16T14:16:05;6.20;;;2.85;;
36475;SDS011;56615;42.682;23.364;2022-10-16T14:18:32;7.35;;;2.95;;
36475;SDS011;56615;42.682;23.364;2022-10-16T14:21:05;4.93;;;2.58;;
36475;SDS011;56615;42.682;23.364;2022-10-16T14:23:37;10.45;;;3.15;;
36475;SDS011;56615;42.682;23.364;2022-10-16T14:26:45;5.80;;;3.28;;
36475;SDS011;56615;42.682;23.364;2022-10-16T14:29:12;8.88;;;3.33;;
36475;SDS011;56615;42.682;23.364;2022-10-16T14:31:40;8.98;;;3.05;;
36475;SDS011;56615;42.682;23.364;2022-10-16T14:34:28;6.57;;;3.22;;
36475;SDS011;56615;42.682;23.364;2022-10-16T14:36:58;7.53;;;3.13;;
36475;SDS011;56615;42.682;23.364;2022-10-16T14:39:48;10.20;;;2.92;;
36475;SDS011;56615;42.682;23.364;2022-10-16T14:42:19;8.02;;;3.15;;
36475;SDS011;56615;42.682;23.364;2022-10-16T14:44:48;6.70;;;2.90;;
36475;SDS011;56615;42.682;23.364;2022-10-16T14:47:18;7.03;;;3.13;;
36475;SDS011;56615;42.682;23.364;2022-10-16T14:49:48;7.60;;;3.53;;
36475;SDS011;56615;42.682;23.364;2022-10-16T14:52:14;6.97;;;3.58;;
36475;SDS011;56615;42.682;23.364;2022-10-16T14:54:40;8.02;;;3.85;;
36475;SDS011;56615;42.682;23.364;2022-10-16T14:57:05;9.98;;;4.75;;
36475;SDS011;56615;42.682;23.364;2022-10-16T14:59:41;7.88;;;4.72;;
36475;SDS011;56615;42.682;23.364;2022-10-16T15:02:19;9.55;;;4.05;;
36475;SDS011;56615;42.682;23.364;2022-10-16T15:04:56;8.07;;;3.97;;
36475;SDS011;56615;42.682;23.364;2022-10-16T15:07:21;7.95;;;3.50;;
36475;SDS011;56615;42.682;23.364;2022-10-16T15:09:48;8.05;;;3.70;;
36475;SDS011;56615;42.682;23.364;2022-10-16T15:12:13;11.57;;;4.38;;
36475;SDS011;56615;42.682;23.364;2022-10-16T15:14:39;8.55;;;3.75;;
36475;SDS011;56615;42.682;23.364;2022-10-16T15:17:04;7.72;;;3.72;;
36475;SDS011;56615;42.682;23.364;2022-10-16T15:19:30;8.48;;;3.58;;
36475;SDS011;56615;42.682;23.364;2022-10-16T15:21:55;9.32;;;3.95;;
36475;SDS011;56615;42.682;23.364;2022-10-16T15:24:21;8.70;;;4.25;;
36475;SDS011;56615;42.682;23.364;2022-10-16T15:26:46;10.68;;;4.93;;
36475;SDS011;56615;42.682;23.364;2022-10-16T15:29:12;9.13;;;4.18;;
36475;SDS011;56615;42.682;23.364;2022-10-16T15:31:38;15.32;;;9.77;;
36475;SDS011;56615;42.682;23.364;2022-10-16T15:34:08;11.07;;;5.15;;
36475;SDS011;56615;42.682;23.364;2022-10-16T15:36:35;10.00;;;4.78;;
36475;SDS011;56615;42.682;23.364;2022-10-16T15:39:02;10.30;;;4.63;;
36475;SDS011;56615;42.682;23.364;2022-10-16T15:41:28;8.77;;;4.97;;
36475;SDS011;56615;42.682;23.364;2022-10-16T15:43:55;13.65;;;5.18;;
36475;SDS011;56615;42.682;23.364;2022-10-16T15:46:21;10.38;;;4.78;;
36475;SDS011;56615;42.682;23.364;2022-10-16T15:48:48;9.57;;;5.03;;
36475;SDS011;56615;42.682;23.364;2022-10-16T15:51:20;11.48;;;5.60;;
36475;SDS011;56615;42.682;23.364;2022-10-16T15:53:45;14.60;;;5.97;;
36475;SDS011;56615;42.682;23.364;2022-10-16T15:56:11;14.63;;;8.38;;
36475;SDS011;56615;42.682;23.364;2022-10-16T15:58:37;14.18;;;7.20;;
36475;SDS011;56615;42.682;23.364;2022-10-16T16:01:03;11.88;;;6.32;;
36475;SDS011;56615;42.682;23.364;2022-10-16T16:03:29;12.70;;;6.68;;
36475;SDS011;56615;42.682;23.364;2022-10-16T16:05:55;13.38;;;6.70;;
36475;SDS011;56615;42.682;23.364;2022-10-16T16:08:20;14.25;;;7.20;;
36475;SDS011;56615;42.682;23.364;2022-10-16T16:10:56;16.58;;;7.13;;
36475;SDS011;56615;42.682;23.364;2022-10-16T16:13:22;13.57;;;6.85;;
36475;SDS011;56615;42.682;23.364;2022-10-16T16:15:48;12.50;;;6.25;;
36475;SDS011;56615;42.682;23.364;2022-10-16T16:18:13;19.02;;;10.77;;
36475;SDS011;56615;42.682;23.364;2022-10-16T16:20:39;13.23;;;6.68;;
36475;SDS011;56615;42.682;23.364;2022-10-16T16:23:04;13.35;;;7.05;;
36475;SDS011;56615;42.682;23.364;2022-10-16T16:25:29;16.48;;;6.45;;
36475;SDS011;56615;42.682;23.364;2022-10-16T16:27:55;13.95;;;5.95;;
36475;SDS011;56615;42.682;23.364;2022-10-16T16:30:21;12.48;;;6.05;;
36475;SDS011;56615;42.682;23.364;2022-10-16T16:32:47;11.65;;;6.43;;
36475;SDS011;56615;42.682;23.364;2022-10-16T16:35:12;14.40;;;7.55;;
36475;SDS011;56615;42.682;23.364;2022-10-16T16:37:37;17.98;;;9.93;;